Time;durP1;ratioP1;P1;durP2;ratioP2;P2;SDS_P1;SDS_P2;PMS_P1;PMS_P2;Temp;Humidity;BMP_temperature;BMP_pressure;BME280_temperature;BME280_humidity;BME280_pressure;Samples;Min_cycle;Max_cycle;Signal;HPM_P1;HPM_P2
2022/08/01 00:00:45;;;;;;;4.60;1.60;;;23.20;1.00;;;;;;5033828;28;20567;-74
2022/08/01 00:03:11;;;;;;;6.13;2.10;;;23.20;1.00;;;;;;5025937;28;20904;-73
2022/08/01 00:05:37;;;;;;;4.77;1.60;;;23.10;1.00;;;;;;5053829;28;20570;-74
2022/08/01 00:08:08;;;;;;;2.10;1.50;;;23.10;1.00;;;;;;5033052;28;20210;-73
2022/08/01 00:10:33;;;;;;;2.30;1.73;;;23.10;1.00;;;;;;5033302;28;20203;-74
2022/08/01 00:12:59;;;;;;;1.93;1.53;;;23.10;1.00;;;;;;5033900;28;20424;-74
2022/08/01 00:15:25;;;;;;;2.03;1.67;;;23.10;1.00;;;;;;5034391;28;20169;-74
2022/08/01 00:17:50;;;;;;;2.17;1.47;;;23.10;1.00;;;;;;5054821;28;20198;-73
2022/08/01 00:20:20;;;;;;;2.63;1.63;;;23.10;1.00;;;;;;5033659;28;20223;-74
2022/08/01 00:22:45;;;;;;;3.80;1.37;;;23.00;1.00;;;;;;5025203;28;20207;-74
2022/08/01 00:25:11;;;;;;;2.20;1.40;;;23.00;1.00;;;;;;5038102;28;20419;-74
2022/08/01 00:27:37;;;;;;;2.37;1.50;;;22.90;1.00;;;;;;5028009;28;20204;-78
2022/08/01 00:30:03;;;;;;;1.40;1.30;;;22.90;1.00;;;;;;5034178;28;20162;-78
2022/08/01 00:32:44;;;;;;;3.53;1.70;;;22.80;1.00;;;;;;5033906;28;20165;-78
2022/08/01 00:35:20;;;;;;;2.07;1.60;;;22.80;1.00;;;;;;5034154;28;20398;-78
2022/08/01 00:37:56;;;;;;;2.00;1.17;;;22.80;1.00;;;;;;5024727;28;20795;-78
2022/08/01 00:40:22;;;;;;;1.37;1.27;;;22.70;1.00;;;;;;5014175;28;20506;-78
2022/08/01 00:42:47;;;;;;;1.70;1.37;;;22.70;1.00;;;;;;5025959;28;20822;-74
2022/08/01 00:45:13;;;;;;;1.80;1.40;;;22.70;1.00;;;;;;5015524;28;20508;-74
2022/08/01 00:47:50;;;;;;;1.63;1.33;;;22.70;1.00;;;;;;5022306;28;20567;-74
2022/08/01 00:50:16;;;;;;;5.43;1.20;;;22.60;1.00;;;;;;5032457;28;20182;-74
2022/08/01 00:52:44;;;;;;;4.53;1.47;;;22.70;1.00;;;;;;5025952;28;20511;-74
2022/08/01 00:55:11;;;;;;;1.20;1.10;;;22.60;1.00;;;;;;5014355;28;20671;-74
2022/08/01 00:57:44;;;;;;;1.57;1.47;;;22.60;1.00;;;;;;5022517;28;20518;-75
2022/08/01 01:00:10;;;;;;;2.33;1.40;;;22.60;1.00;;;;;;5014316;28;20436;-74
2022/08/01 01:02:36;;;;;;;6.20;1.60;;;22.50;1.00;;;;;;5016216;28;20432;-74
2022/08/01 01:05:03;;;;;;;2.93;1.30;;;22.50;1.00;;;;;;5022254;28;20429;-74
2022/08/01 01:07:47;;;;;;;2.60;1.10;;;22.50;1.00;;;;;;5026129;28;20726;-74
2022/08/01 01:10:28;;;;;;;1.63;1.43;;;22.40;1.00;;;;;;5022578;28;20421;-74
2022/08/01 01:13:04;;;;;;;1.40;1.30;;;22.40;1.00;;;;;;5014329;28;20511;-74
2022/08/01 01:15:51;;;;;;;1.97;1.70;;;22.30;1.00;;;;;;5023662;28;20450;-74
2022/08/01 01:18:24;;;;;;;1.90;1.40;;;22.20;1.00;;;;;;5030774;28;20431;-74
2022/08/01 01:21:06;;;;;;;1.77;1.40;;;22.10;1.00;;;;;;5020216;28;20436;-74
2022/08/01 01:23:53;;;;;;;1.50;1.40;;;22.00;1.00;;;;;;5021174;28;20745;-75
2022/08/01 01:26:52;;;;;;;2.67;1.57;;;21.90;1.00;;;;;;5036577;28;20743;-74
2022/08/01 01:30:07;;;;;;;1.80;1.70;;;21.80;1.00;;;;;;5038400;28;20454;-78
2022/08/01 01:32:52;;;;;;;1.63;1.50;;;21.60;1.00;;;;;;5023077;28;20446;-78
2022/08/01 01:35:55;;;;;;;4.40;2.40;;;21.50;1.00;;;;;;5017600;28;20902;-78
2022/08/01 01:38:34;;;;;;;4.30;2.30;;;21.40;1.00;;;;;;5031053;28;20440;-78
2022/08/01 01:41:03;;;;;;;3.20;2.03;;;21.30;1.00;;;;;;5024994;28;20417;-78
2022/08/01 01:43:50;;;;;;;4.03;2.13;;;21.20;1.00;;;;;;5035416;28;20449;-78
2022/08/01 01:46:49;;;;;;;3.30;2.27;;;21.10;1.00;;;;;;5034430;28;20444;-78
2022/08/01 01:49:56;;;;;;;4.97;2.57;;;21.00;1.00;;;;;;5024966;28;20468;-78
2022/08/01 01:52:27;;;;;;;3.27;2.03;;;20.90;1.00;;;;;;5027205;28;20477;-79
2022/08/01 01:54:58;;;;;;;3.90;1.90;;;20.80;1.00;;;;;;5017223;28;20818;-78
2022/08/01 01:57:28;;;;;;;2.73;1.93;;;20.80;1.00;;;;;;5026644;28;20439;-79
2022/08/01 01:59:57;;;;;;;1.80;1.53;;;20.70;1.00;;;;;;5020881;28;20441;-74
2022/08/01 02:02:27;;;;;;;3.00;1.60;;;20.80;1.00;;;;;;5024894;28;20428;-74
2022/08/01 02:05:02;;;;;;;2.07;1.77;;;20.70;1.00;;;;;;5032334;28;20429;-74
2022/08/01 02:07:29;;;;;;;3.67;1.60;;;20.70;1.00;;;;;;5022960;28;20453;-74
2022/08/01 02:09:56;;;;;;;1.93;1.83;;;20.60;1.00;;;;;;5016651;28;20832;-74
2022/08/01 02:12:37;;;;;;;3.87;1.63;;;20.60;1.00;;;;;;5033034;28;20438;-74
2022/08/01 02:15:05;;;;;;;3.70;1.90;;;20.50;1.00;;;;;;5023170;28;20458;-78
2022/08/01 02:17:40;;;;;;;2.20;2.00;;;20.50;1.00;;;;;;5024627;28;20965;-79
2022/08/01 02:20:06;;;;;;;1.77;1.67;;;20.40;1.00;;;;;;5036541;28;20410;-79
2022/08/01 02:23:00;;;;;;;2.27;2.07;;;20.40;1.00;;;;;;5036631;28;20384;-79
2022/08/01 02:25:38;;;;;;;3.17;1.70;;;20.40;1.00;;;;;;5031148;28;20492;-79
2022/08/01 02:28:15;;;;;;;1.90;1.70;;;20.40;1.00;;;;;;5025611;28;20510;-79
2022/08/01 02:30:48;;;;;;;2.87;1.90;;;20.40;1.00;;;;;;5022727;28;20517;-79
2022/08/01 02:33:20;;;;;;;7.10;2.50;;;20.40;1.00;;;;;;5036291;28;20402;-79
2022/08/01 02:36:15;;;;;;;2.20;2.00;;;20.40;1.00;;;;;;5027649;28;20437;-79
2022/08/01 02:38:46;;;;;;;1.90;1.80;;;20.30;1.00;;;;;;5029937;28;20420;-79
2022/08/01 02:41:28;;;;;;;1.70;1.60;;;20.40;1.00;;;;;;5032388;28;20530;-79
2022/08/01 02:44:13;;;;;;;2.20;1.40;;;20.30;1.00;;;;;;5028447;28;20431;-79
2022/08/01 02:47:02;;;;;;;2.93;1.57;;;20.30;1.00;;;;;;5036110;28;20402;-79
2022/08/01 02:49:52;;;;;;;3.67;1.60;;;20.20;1.00;;;;;;5032963;28;20932;-79
2022/08/01 02:52:29;;;;;;;2.17;1.97;;;20.10;1.00;;;;;;5016222;28;20762;-79
2022/08/01 02:54:58;;;;;;;5.00;2.10;;;20.10;1.00;;;;;;5021246;28;20415;-79
2022/08/01 02:57:56;;;;;;;2.70;1.77;;;20.10;1.00;;;;;;5034750;28;20474;-79
2022/08/01 03:00:23;;;;;;;1.80;1.70;;;20.10;1.00;;;;;;5025983;28;22360;-74
2022/08/01 03:02:58;;;;;;;3.83;1.50;;;20.00;1.00;;;;;;5022743;28;20424;-74
2022/08/01 03:05:26;;;;;;;2.87;1.90;;;20.00;1.00;;;;;;5035504;28;20455;-75
2022/08/01 03:08:03;;;;;;;6.10;2.20;;;20.00;1.00;;;;;;5035920;28;20470;-75
2022/08/01 03:10:31;;;;;;;1.93;1.83;;;19.90;1.00;;;;;;5031257;28;20474;-75
2022/08/01 03:13:09;;;;;;;1.90;1.80;;;19.80;1.00;;;;;;5029566;28;20434;-75
2022/08/01 03:15:39;;;;;;;1.73;1.63;;;19.80;1.00;;;;;;5031556;28;20427;-75
2022/08/01 03:18:07;;;;;;;4.00;1.60;;;19.80;1.00;;;;;;5023879;28;20910;-75
2022/08/01 03:20:34;;;;;;;2.10;2.00;;;19.80;1.00;;;;;;5022186;28;20524;-75
2022/08/01 03:23:04;;;;;;;2.63;1.93;;;19.70;1.00;;;;;;5032715;28;20452;-75
2022/08/01 03:25:45;;;;;;;4.13;2.10;;;19.70;1.00;;;;;;5030686;28;20431;-75
2022/08/01 03:28:13;;;;;;;4.13;2.30;;;19.60;1.00;;;;;;5020650;28;20532;-75
2022/08/01 03:30:57;;;;;;;2.03;1.80;;;19.70;1.00;;;;;;5029534;28;20984;-75
2022/08/01 03:33:26;;;;;;;2.60;1.90;;;19.60;1.00;;;;;;5023925;28;20775;-75
2022/08/01 03:35:59;;;;;;;2.90;2.20;;;19.60;1.00;;;;;;5022293;28;20568;-75
2022/08/01 03:38:37;;;;;;;2.93;1.70;;;19.60;1.00;;;;;;5029908;28;20544;-75
2022/08/01 03:41:11;;;;;;;1.70;1.60;;;19.60;1.00;;;;;;5026561;28;20472;-75
2022/08/01 03:43:43;;;;;;;10.50;1.73;;;19.70;1.00;;;;;;5028873;28;20448;-75
2022/08/01 03:46:20;;;;;;;3.87;2.20;;;19.70;1.00;;;;;;5024564;28;20436;-79
2022/08/01 03:49:11;;;;;;;4.00;1.90;;;19.80;1.00;;;;;;5026801;28;20458;-79
2022/08/01 03:51:38;;;;;;;2.10;1.87;;;19.90;1.00;;;;;;5026879;28;20409;-79
2022/08/01 03:54:23;;;;;;;1.80;1.70;;;20.00;1.00;;;;;;5015055;28;20773;-79
2022/08/01 03:57:03;;;;;;;1.93;1.53;;;20.10;1.00;;;;;;5043131;28;20446;-80
2022/08/01 03:59:30;;;;;;;2.70;2.10;;;20.10;1.00;;;;;;5027733;28;21072;-76
2022/08/01 04:01:57;;;;;;;2.77;2.13;;;20.20;1.00;;;;;;5023968;28;20455;-75
2022/08/01 04:04:32;;;;;;;5.67;1.97;;;20.30;1.00;;;;;;5032403;28;20428;-75
2022/08/01 04:07:06;;;;;;;4.30;1.97;;;20.40;1.00;;;;;;5025022;28;20412;-75
2022/08/01 04:09:38;;;;;;;2.10;1.70;;;20.50;1.00;;;;;;5030103;28;20460;-75
2022/08/01 04:12:08;;;;;;;4.50;1.43;;;20.50;1.00;;;;;;5014968;28;20469;-75
2022/08/01 04:14:50;;;;;;;2.07;1.87;;;20.60;1.00;;;;;;5034688;28;20432;-75
2022/08/01 04:17:20;;;;;;;4.27;2.23;;;20.60;1.00;;;;;;5032345;28;20467;-75
2022/08/01 04:19:46;;;;;;;1.80;1.70;;;20.60;1.00;;;;;;5022266;28;20409;-75
2022/08/01 04:22:32;;;;;;;1.70;1.60;;;20.70;1.00;;;;;;5020173;28;20513;-75
2022/08/01 04:25:00;;;;;;;2.70;1.80;;;20.70;1.00;;;;;;5027524;28;20652;-75
2022/08/01 04:27:49;;;;;;;8.43;1.90;;;20.70;1.00;;;;;;5015091;28;20421;-76
2022/08/01 04:33:49;;;;;;;2.70;1.67;;;20.60;1.00;;;;;;5019421;28;20431;-79
2022/08/01 04:36:45;;;;;;;3.27;1.80;;;20.60;1.00;;;;;;5014565;28;20403;-79
2022/08/01 04:39:11;;;;;;;3.90;1.87;;;20.70;1.00;;;;;;5014119;28;20412;-79
2022/08/01 04:41:46;;;;;;;2.60;1.80;;;20.70;1.00;;;;;;5019745;28;20428;-81
2022/08/01 04:44:20;;;;;;;4.40;1.97;;;20.70;1.00;;;;;;5024171;28;20420;-80
2022/08/01 04:47:04;;;;;;;2.27;1.80;;;20.70;1.00;;;;;;5026334;28;20758;-81
2022/08/01 04:49:39;;;;;;;2.17;2.00;;;20.70;1.00;;;;;;5027482;28;20460;-81
2022/08/01 04:52:14;;;;;;;1.90;1.80;;;20.70;1.00;;;;;;5032962;28;20627;-81
2022/08/01 04:54:40;;;;;;;3.60;1.77;;;20.70;1.00;;;;;;5033574;28;20501;-81
2022/08/01 04:57:44;;;;;;;4.37;2.13;;;20.60;1.00;;;;;;5026215;28;20407;-81
2022/08/01 05:00:16;;;;;;;2.50;1.53;;;20.70;1.00;;;;;;5033885;28;20153;-82
2022/08/01 05:02:44;;;;;;;1.90;1.80;;;20.80;1.00;;;;;;5025205;28;20414;-81
2022/08/01 05:05:10;;;;;;;6.30;1.80;;;20.90;1.00;;;;;;5033462;28;20398;-81
2022/08/01 05:07:38;;;;;;;2.07;1.73;;;21.00;1.00;;;;;;5018215;28;20538;-81
2022/08/01 05:10:14;;;;;;;2.83;1.77;;;21.10;1.00;;;;;;5024488;28;20436;-81
2022/08/01 05:12:50;;;;;;;6.93;1.70;;;21.20;1.00;;;;;;5028008;28;20998;-82
2022/08/01 05:15:16;;;;;;;2.87;1.70;;;21.30;1.00;;;;;;5022467;28;20407;-72
2022/08/01 05:17:44;;;;;;;2.63;1.50;;;21.50;1.00;;;;;;5025439;28;20442;-72
2022/08/01 05:20:14;;;;;;;2.60;1.97;;;21.60;1.00;;;;;;5027535;28;20666;-79
2022/08/01 05:22:44;;;;;;;2.00;1.83;;;21.60;1.00;;;;;;5032865;28;20432;-76
2022/08/01 05:25:15;;;;;;;3.23;2.00;;;21.70;1.00;;;;;;5030220;28;20432;-78
2022/08/01 05:27:44;;;;;;;10.90;2.17;;;21.70;1.00;;;;;;5033118;28;20397;-79
2022/08/01 05:30:26;;;;;;;1.80;1.70;;;21.70;1.00;;;;;;5021913;28;20826;-78
2022/08/01 05:32:56;;;;;;;1.80;1.70;;;21.80;1.00;;;;;;5033222;28;20928;-79
2022/08/01 05:35:26;;;;;;;1.60;1.50;;;21.90;1.00;;;;;;5033003;28;20873;-79
2022/08/01 05:38:14;;;;;;;6.00;3.20;;;22.00;1.00;;;;;;5027847;28;20423;-79
2022/08/01 05:40:44;;;;;;;2.53;1.80;;;22.00;1.00;;;;;;5031869;28;20433;-79
2022/08/01 05:43:20;;;;;;;5.43;1.90;;;22.00;1.00;;;;;;5030920;28;20465;-79
2022/08/01 05:45:50;;;;;;;2.27;1.80;;;22.10;1.00;;;;;;5019897;28;20400;-74
2022/08/01 05:48:16;;;;;;;5.07;2.20;;;22.20;1.00;;;;;;5013896;28;20483;-74
2022/08/01 05:50:42;;;;;;;2.47;1.67;;;22.40;1.00;;;;;;5025121;28;20465;-74
2022/08/01 05:53:08;;;;;;;2.20;2.00;;;22.50;1.00;;;;;;5027191;28;20663;-74
2022/08/01 05:55:34;;;;;;;2.93;2.00;;;23.10;1.00;;;;;;5016629;28;20177;-74
2022/08/01 05:58:08;;;;;;;2.57;1.93;;;22.80;1.00;;;;;;5016546;28;20254;-76
2022/08/01 06:00:34;;;;;;;4.60;2.17;;;22.90;1.00;;;;;;5028043;28;20426;-76
2022/08/01 06:03:02;;;;;;;1.50;1.40;;;23.00;1.00;;;;;;5017878;28;20480;-76
2022/08/01 06:05:44;;;;;;;1.63;1.53;;;23.20;1.00;;;;;;5013238;28;20191;-76
2022/08/01 06:08:14;;;;;;;3.73;2.23;;;23.40;1.00;;;;;;5020748;28;20460;-76
2022/08/01 06:10:44;;;;;;;2.80;2.20;;;23.50;1.00;;;;;;5032912;28;20441;-76
2022/08/01 06:13:14;;;;;;;2.13;1.93;;;23.60;1.00;;;;;;5031782;28;20478;-77
2022/08/01 06:15:56;;;;;;;1.87;1.70;;;23.70;1.00;;;;;;5022771;28;20429;-76
2022/08/01 06:18:43;;;;;;;5.80;2.00;;;23.70;1.00;;;;;;5030836;28;20963;-76
2022/08/01 06:21:14;;;;;;;2.03;1.93;;;23.60;1.00;;;;;;5022325;28;20512;-76
2022/08/01 06:23:42;;;;;;;2.13;2.03;;;23.70;1.00;;;;;;5023095;28;20819;-76
2022/08/01 06:26:08;;;;;;;12.53;2.03;;;23.80;1.00;;;;;;5020977;28;20494;-76
2022/08/01 06:28:44;;;;;;;2.80;2.00;;;24.00;1.00;;;;;;5036474;28;20472;-76
2022/08/01 06:31:12;;;;;;;2.37;2.20;;;24.10;1.00;;;;;;5021834;28;20409;-73
2022/08/01 06:33:38;;;;;;;2.50;2.23;;;24.10;1.00;;;;;;5017583;28;20434;-73
2022/08/01 06:36:09;;;;;;;2.70;1.50;;;24.30;1.00;;;;;;5016517;28;20797;-74
2022/08/01 06:38:35;;;;;;;2.80;1.97;;;24.40;1.00;;;;;;5030776;28;20180;-73
2022/08/01 06:41:00;;;;;;;2.80;2.40;;;24.50;1.00;;;;;;5028603;28;20429;-73
2022/08/01 06:43:38;;;;;;;2.87;2.10;;;24.70;1.00;;;;;;5010073;28;20424;-73
2022/08/01 06:46:04;;;;;;;6.40;2.00;;;24.60;1.00;;;;;;5031435;28;20736;-75
2022/08/01 06:48:29;;;;;;;3.93;2.30;;;24.70;1.00;;;;;;5020054;28;20455;-74
2022/08/01 06:51:07;;;;;;;5.13;1.90;;;24.70;1.00;;;;;;5033053;28;20521;-74
2022/08/01 06:53:34;;;;;;;5.17;2.00;;;25.00;1.00;;;;;;5015311;28;20666;-74
2022/08/01 06:56:00;;;;;;;22.43;1.83;;;25.30;1.00;;;;;;5024113;28;20417;-74
2022/08/01 06:58:26;;;;;;;2.80;2.13;;;25.40;1.00;;;;;;5028970;28;20438;-74
2022/08/01 07:00:51;;;;;;;8.33;2.10;;;25.50;1.00;;;;;;5015555;28;20772;-74
2022/08/01 07:03:20;;;;;;;2.50;2.30;;;25.60;1.00;;;;;;5029048;28;20210;-74
2022/08/01 07:05:45;;;;;;;2.50;2.30;;;25.40;1.00;;;;;;5023249;28;20178;-74
2022/08/01 07:08:11;;;;;;;2.40;2.20;;;25.40;1.00;;;;;;5029682;28;20468;-73
2022/08/01 07:10:36;;;;;;;2.80;1.93;;;25.40;1.00;;;;;;5024038;28;20169;-72
2022/08/01 07:13:02;;;;;;;2.67;2.47;;;25.50;1.00;;;;;;5017144;28;20659;-73
2022/08/01 07:15:28;;;;;;;2.20;2.00;;;25.40;1.00;;;;;;5016960;28;20178;-72
2022/08/01 07:17:53;;;;;;;2.30;2.10;;;25.50;1.00;;;;;;5030541;28;20211;-73
2022/08/01 07:20:19;;;;;;;2.43;2.27;;;25.60;1.00;;;;;;5019647;28;20184;-72
2022/08/01 07:22:45;;;;;;;3.83;2.60;;;25.80;1.00;;;;;;5015640;28;20271;-72
2022/08/01 07:25:10;;;;;;;3.27;2.93;;;25.90;1.00;;;;;;5020057;28;20215;-72
2022/08/01 07:27:37;;;;;;;2.47;2.30;;;26.00;1.00;;;;;;5017504;28;20179;-72
2022/08/01 07:30:04;;;;;;;3.30;2.67;;;26.20;1.00;;;;;;5017233;28;20175;-72
2022/08/01 07:32:30;;;;;;;2.73;2.50;;;26.20;1.00;;;;;;5014592;28;20414;-76
2022/08/01 07:34:56;;;;;;;3.27;2.30;;;26.00;1.00;;;;;;5022435;28;20948;-76
2022/08/01 07:37:23;;;;;;;3.60;3.30;;;26.00;1.00;;;;;;5026020;28;20182;-76
2022/08/01 07:39:49;;;;;;;3.63;3.33;;;26.00;1.00;;;;;;5022925;28;20921;-76
2022/08/01 07:42:14;;;;;;;4.03;3.37;;;26.10;1.00;;;;;;5026545;28;20461;-76
2022/08/01 07:44:40;;;;;;;12.50;3.77;;;26.10;1.00;;;;;;5018204;28;20696;-76
2022/08/01 07:47:06;;;;;;;7.40;3.90;;;26.20;1.00;;;;;;5021291;28;20216;-76
2022/08/01 07:49:32;;;;;;;5.00;4.43;;;26.50;1.00;;;;;;5019707;28;20573;-76
2022/08/01 07:51:57;;;;;;;11.50;4.13;;;26.60;1.00;;;;;;5014011;28;20174;-76
2022/08/01 07:54:27;;;;;;;6.73;4.03;;;26.70;1.00;;;;;;5030251;28;20645;-74
2022/08/01 07:56:54;;;;;;;5.03;4.17;;;26.90;1.00;;;;;;5018079;28;20172;-74
2022/08/01 07:59:22;;;;;;;7.17;3.83;;;26.80;1.00;;;;;;5017662;28;20450;-74
2022/08/01 08:01:50;;;;;;;4.23;3.83;;;26.90;1.00;;;;;;5030882;28;20907;-69
2022/08/01 08:04:18;;;;;;;3.80;3.50;;;26.90;1.00;;;;;;5017865;28;20514;-69
2022/08/01 08:06:47;;;;;;;5.40;4.00;;;27.00;1.00;;;;;;5019522;28;20475;-69
2022/08/01 08:09:13;;;;;;;8.33;3.40;;;27.60;1.00;;;;;;5023975;28;20491;-69
2022/08/01 08:11:38;;;;;;;3.73;3.43;;;27.90;1.00;;;;;;5030457;28;20946;-69
2022/08/01 08:14:04;;;;;;;3.33;3.13;;;27.70;1.00;;;;;;5024526;28;20180;-69
2022/08/01 08:16:30;;;;;;;3.80;3.13;;;28.00;1.00;;;;;;5028386;28;20321;-70
2022/08/01 08:18:55;;;;;;;3.13;2.93;;;28.20;1.00;;;;;;5015349;28;20194;-74
2022/08/01 08:21:21;;;;;;;3.30;3.10;;;28.30;1.00;;;;;;5031156;28;20434;-74
2022/08/01 08:26:31;;;;;;;3.60;3.20;;;28.30;1.00;;;;;;5022665;28;20235;-74
2022/08/01 08:29:02;;;;;;;3.70;3.40;;;28.40;1.00;;;;;;5028422;28;20459;-75
2022/08/01 08:31:28;;;;;;;3.53;3.23;;;28.00;1.00;;;;;;5021502;28;20187;-75
2022/08/01 08:33:54;;;;;;;5.77;3.23;;;28.10;1.00;;;;;;5032006;28;20430;-75
2022/08/01 08:36:20;;;;;;;3.23;3.03;;;28.20;1.00;;;;;;5029926;28;20244;-75
2022/08/01 08:38:50;;;;;;;2.37;2.17;;;28.00;1.00;;;;;;5022700;28;20446;-75
2022/08/01 08:41:16;;;;;;;4.40;3.30;;;28.20;1.00;;;;;;5029605;28;20903;-74
2022/08/01 08:43:42;;;;;;;3.20;2.97;;;28.20;1.00;;;;;;5014596;28;20446;-74
2022/08/01 08:46:08;;;;;;;3.87;3.53;;;28.10;1.00;;;;;;5020116;28;20934;-74
2022/08/01 08:48:35;;;;;;;4.10;3.70;;;28.00;1.00;;;;;;5018003;28;20206;-74
2022/08/01 08:51:01;;;;;;;3.93;3.63;;;28.00;1.00;;;;;;5026624;28;20482;-74
2022/08/01 08:53:33;;;;;;;4.23;3.27;;;28.10;1.00;;;;;;5019309;28;20450;-74
2022/08/01 08:56:08;;;;;;;4.43;3.23;;;28.00;1.00;;;;;;5030251;28;20481;-74
2022/08/01 08:58:37;;;;;;;5.80;3.70;;;27.90;1.00;;;;;;5026800;28;20444;-74
2022/08/01 09:01:06;;;;;;;5.63;2.90;;;27.90;1.00;;;;;;5024139;28;20417;-74
2022/08/01 09:03:32;;;;;;;4.20;3.80;;;27.80;1.00;;;;;;5023671;28;20443;-69
2022/08/01 09:06:02;;;;;;;7.00;4.40;;;27.40;1.00;;;;;;5025258;28;20445;-81
2022/08/01 09:08:32;;;;;;;3.90;3.60;;;27.30;1.00;;;;;;5023845;28;20466;-80
2022/08/01 09:10:58;;;;;;;5.30;3.67;;;27.30;1.00;;;;;;5014512;28;20482;-80
2022/08/01 09:14:10;;;;;;;5.13;4.07;;;27.30;1.00;;;;;;5013569;28;20464;-81
2022/08/01 09:16:40;;;;;;;4.23;3.83;;;27.30;1.00;;;;;;5017715;28;20193;-77
2022/08/01 09:19:38;;;;;;;3.90;3.60;;;27.70;1.00;;;;;;5030984;28;20424;-79
2022/08/01 09:22:38;;;;;;;8.00;3.93;;;28.00;1.00;;;;;;5019263;28;20475;-79
2022/08/01 09:25:09;;;;;;;4.33;3.93;;;28.20;1.00;;;;;;5026981;28;20836;-78
2022/08/01 09:27:38;;;;;;;4.47;4.13;;;28.40;1.00;;;;;;5026503;28;20972;-78
2022/08/01 09:30:15;;;;;;;4.80;4.40;;;28.50;1.00;;;;;;5019764;28;20448;-78
2022/08/01 09:33:01;;;;;;;4.07;3.67;;;28.50;1.00;;;;;;5017201;28;20515;-75
2022/08/01 09:35:36;;;;;;;4.00;3.70;;;28.60;1.00;;;;;;5039302;28;20987;-75
2022/08/01 09:38:15;;;;;;;6.20;3.70;;;28.80;1.00;;;;;;5033798;28;20495;-75
2022/08/01 09:40:54;;;;;;;7.17;3.40;;;29.00;1.00;;;;;;5024323;28;20430;-75
2022/08/01 09:43:22;;;;;;;3.70;3.40;;;28.70;1.00;;;;;;5026521;28;20436;-75
2022/08/01 09:45:48;;;;;;;5.00;3.80;;;29.00;1.00;;;;;;5026476;28;20430;-75
2022/08/01 09:48:39;;;;;;;4.97;3.30;;;29.00;1.00;;;;;;5017223;28;20466;-79
2022/08/01 09:51:38;;;;;;;4.07;3.43;;;29.10;1.00;;;;;;5033382;28;20429;-77
2022/08/01 09:54:08;;;;;;;5.80;3.50;;;29.00;1.00;;;;;;5035069;28;20413;-79
2022/08/01 09:56:45;;;;;;;3.50;3.13;;;29.00;1.00;;;;;;5039209;28;20428;-80
2022/08/01 09:59:11;;;;;;;3.17;2.97;;;29.30;1.00;;;;;;5024258;28;20915;-78
2022/08/01 10:01:56;;;;;;;4.40;3.23;;;29.50;1.00;;;;;;5026795;28;20413;-78
2022/08/01 10:04:33;;;;;;;3.10;2.90;;;29.80;1.00;;;;;;5021396;28;20947;-78
2022/08/01 10:07:43;;;;;;;3.63;3.07;;;29.90;1.00;;;;;;5022797;28;20457;-78
2022/08/01 10:10:11;;;;;;;3.83;2.60;;;29.90;1.00;;;;;;5028884;28;20453;-79
2022/08/01 10:12:40;;;;;;;2.70;2.60;;;29.80;1.00;;;;;;5016814;28;20601;-79
2022/08/01 10:15:33;;;;;;;3.00;2.80;;;29.30;1.00;;;;;;5030921;28;20422;-78
2022/08/01 10:18:02;;;;;;;3.07;2.87;;;29.30;1.00;;;;;;5034544;28;20489;-75
2022/08/01 10:21:03;;;;;;;3.17;2.97;;;28.90;1.00;;;;;;5022252;28;20427;-75
2022/08/01 10:23:38;;;;;;;3.73;3.10;;;28.90;1.00;;;;;;5021569;28;20436;-75
2022/08/01 10:26:15;;;;;;;3.20;3.00;;;28.80;1.00;;;;;;5025052;28;20421;-75
2022/08/01 10:28:47;;;;;;;3.57;3.20;;;28.40;1.00;;;;;;5033841;28;20466;-78
2022/08/01 10:31:20;;;;;;;4.50;2.93;;;28.10;1.00;;;;;;5030430;28;20897;-78
2022/08/01 10:34:03;;;;;;;3.50;3.20;;;28.00;1.00;;;;;;5034531;28;20797;-78
2022/08/01 10:36:50;;;;;;;3.90;3.27;;;27.90;1.00;;;;;;5021561;28;20430;-78
2022/08/01 10:42:41;;;;;;;3.27;3.07;;;28.10;1.00;;;;;;5038634;28;20801;-78
2022/08/01 10:45:11;;;;;;;4.83;3.40;;;28.10;1.00;;;;;;5035262;28;20528;-78
2022/08/01 10:48:29;;;;;;;2.70;2.50;;;28.20;1.00;;;;;;5030341;28;20446;-78
2022/08/01 10:51:08;;;;;;;3.00;2.80;;;28.60;1.00;;;;;;5048207;28;20437;-78
2022/08/01 10:53:47;;;;;;;3.50;3.20;;;28.70;1.00;;;;;;5055294;28;20943;-80
2022/08/01 10:56:14;;;;;;;3.40;3.10;;;28.70;1.00;;;;;;5045534;28;20418;-79
2022/08/01 10:58:46;;;;;;;2.90;2.70;;;28.90;1.00;;;;;;5044802;28;20425;-78
2022/08/01 11:01:55;;;;;;;9.60;2.73;;;28.90;1.00;;;;;;5036999;28;20440;-78
2022/08/01 11:04:57;;;;;;;3.10;2.73;;;28.80;1.00;;;;;;5042462;28;20559;-78
2022/08/01 11:07:51;;;;;;;3.10;2.80;;;28.90;1.00;;;;;;5033703;28;20532;-78
2022/08/01 11:10:38;;;;;;;3.70;2.50;;;29.10;1.00;;;;;;5033756;28;20957;-79
2022/08/01 11:13:07;;;;;;;2.23;2.13;;;29.20;1.00;;;;;;5041379;28;20450;-79
2022/08/01 11:15:40;;;;;;;4.07;2.87;;;29.40;1.00;;;;;;5051745;28;20471;-78
2022/08/01 11:18:27;;;;;;;2.97;2.70;;;29.50;1.00;;;;;;5054775;28;20398;-76
2022/08/01 11:21:00;;;;;;;2.93;2.60;;;29.90;1.00;;;;;;5051337;28;20427;-78
2022/08/01 11:23:48;;;;;;;2.73;2.53;;;30.20;1.00;;;;;;5049016;28;20532;-78
2022/08/01 11:26:15;;;;;;;2.40;2.30;;;30.50;1.00;;;;;;5038942;28;20471;-79
2022/08/01 11:28:43;;;;;;;2.53;2.43;;;30.60;1.00;;;;;;5033280;28;20541;-81
2022/08/01 11:32:02;;;;;;;3.07;2.00;;;30.30;1.00;;;;;;5033660;28;20469;-80
2022/08/01 11:34:58;;;;;;;4.70;2.10;;;30.30;1.00;;;;;;5032581;28;20427;-79
2022/08/01 11:37:29;;;;;;;2.10;2.00;;;30.20;1.00;;;;;;5024735;28;20515;-78
2022/08/01 11:40:43;;;;;;;2.33;2.23;;;30.20;1.00;;;;;;5027115;28;20418;-78
2022/08/01 11:43:26;;;;;;;4.40;2.03;;;30.20;1.00;;;;;;5014780;28;20481;-79
2022/08/01 11:45:56;;;;;;;2.87;2.33;;;30.40;1.00;;;;;;5024009;28;20525;-79
2022/08/01 11:48:26;;;;;;;3.30;2.07;;;30.60;1.00;;;;;;5021615;28;20473;-74
2022/08/01 11:50:53;;;;;;;2.53;2.10;;;30.70;1.00;;;;;;5031770;28;20442;-71
2022/08/01 11:53:19;;;;;;;2.93;2.30;;;30.70;1.00;;;;;;5015737;28;20431;-72
2022/08/01 11:55:50;;;;;;;2.70;2.50;;;30.50;1.00;;;;;;5023601;28;20464;-71
2022/08/01 11:58:21;;;;;;;5.03;2.30;;;30.60;1.00;;;;;;5024946;28;20563;-71
2022/08/01 12:01:04;;;;;;;3.63;2.10;;;30.40;1.00;;;;;;5013657;28;20428;-71
2022/08/01 12:03:35;;;;;;;2.30;2.20;;;30.30;1.00;;;;;;5002375;28;20850;-71
2022/08/01 12:06:02;;;;;;;2.43;2.33;;;30.00;1.00;;;;;;5020696;28;20432;-69
2022/08/01 12:08:36;;;;;;;2.43;2.27;;;29.90;1.00;;;;;;5020630;28;20556;-71
2022/08/01 12:11:06;;;;;;;2.47;2.27;;;30.00;1.00;;;;;;5016572;28;20471;-71
2022/08/01 12:14:02;;;;;;;3.57;2.17;;;30.00;1.00;;;;;;5012442;28;20803;-70
2022/08/01 12:16:32;;;;;;;3.23;2.40;;;30.30;1.00;;;;;;5020803;28;20792;-72
2022/08/01 12:19:00;;;;;;;3.37;2.27;;;30.30;1.00;;;;;;5014768;28;20413;-71
2022/08/01 12:21:29;;;;;;;2.80;2.53;;;30.40;1.00;;;;;;5014694;28;20535;-71
2022/08/01 12:24:05;;;;;;;2.50;2.00;;;30.80;1.00;;;;;;5014902;28;20444;-69
2022/08/01 12:26:43;;;;;;;2.50;2.20;;;31.00;1.00;;;;;;5014912;28;20431;-70
2022/08/01 12:29:34;;;;;;;3.03;1.70;;;31.10;1.00;;;;;;5020960;28;20859;-70
2022/08/01 12:32:00;;;;;;;3.10;2.17;;;31.30;1.00;;;;;;5027180;28;20432;-70
2022/08/01 12:34:27;;;;;;;2.80;2.30;;;31.60;1.00;;;;;;5012616;28;20575;-76
2022/08/01 12:36:58;;;;;;;2.83;2.10;;;31.80;1.00;;;;;;5019588;28;20189;-76
2022/08/01 12:39:43;;;;;;;2.07;1.90;;;31.80;1.00;;;;;;5020756;28;20439;-73
2022/08/01 12:42:13;;;;;;;5.20;1.77;;;31.80;1.00;;;;;;5017418;28;20428;-74
2022/08/01 12:44:41;;;;;;;10.90;1.93;;;32.00;1.00;;;;;;5025167;28;20430;-73
2022/08/01 12:47:08;;;;;;;2.00;1.90;;;32.00;1.00;;;;;;5017867;28;20469;-74
2022/08/01 12:49:37;;;;;;;1.90;1.80;;;32.10;1.00;;;;;;5017593;28;20473;-69
2022/08/01 12:52:05;;;;;;;2.20;1.80;;;31.80;1.00;;;;;;5029030;28;20429;-71
2022/08/01 12:55:01;;;;;;;2.60;1.80;;;31.50;1.00;;;;;;5017823;28;20470;-71
2022/08/01 12:57:28;;;;;;;3.87;2.13;;;31.50;1.00;;;;;;5020957;28;20884;-69
2022/08/01 13:00:04;;;;;;;1.73;1.63;;;31.40;1.00;;;;;;5013777;28;20434;-69
2022/08/01 13:02:34;;;;;;;2.40;1.83;;;31.20;1.00;;;;;;5017822;28;20442;-69
2022/08/01 13:05:01;;;;;;;2.40;2.20;;;31.50;1.00;;;;;;5021091;28;20781;-71
2022/08/01 13:07:36;;;;;;;1.80;1.70;;;31.10;1.00;;;;;;5024748;28;20427;-70
2022/08/01 13:10:04;;;;;;;1.77;1.60;;;31.10;1.00;;;;;;5022860;28;20463;-69
2022/08/01 13:12:30;;;;;;;1.70;1.60;;;31.20;1.00;;;;;;5025788;28;20774;-69
2022/08/01 13:14:56;;;;;;;2.03;1.93;;;31.30;1.00;;;;;;5013659;28;20424;-69
2022/08/01 13:17:35;;;;;;;3.43;1.97;;;31.60;1.00;;;;;;5019203;28;20444;-69
2022/08/01 13:20:02;;;;;;;1.93;1.63;;;31.90;1.00;;;;;;5014682;28;20258;-69
2022/08/01 13:22:35;;;;;;;2.43;1.77;;;32.20;1.00;;;;;;5019022;28;20422;-72
2022/08/01 13:25:12;;;;;;;2.10;1.80;;;32.40;1.00;;;;;;5020251;28;20426;-73
2022/08/01 13:27:38;;;;;;;2.07;1.77;;;32.30;1.00;;;;;;5026622;28;20449;-73
2022/08/01 13:30:19;;;;;;;3.77;1.80;;;32.30;1.00;;;;;;5025242;28;20532;-73
2022/08/01 13:32:59;;;;;;;7.73;1.60;;;32.50;1.00;;;;;;5013982;28;20203;-73
2022/08/01 13:35:25;;;;;;;2.33;1.67;;;32.60;1.00;;;;;;5024870;28;20426;-75
2022/08/01 13:37:50;;;;;;;1.53;1.20;;;32.70;1.00;;;;;;5027003;28;20435;-77
2022/08/01 13:40:26;;;;;;;2.30;1.30;;;32.80;1.00;;;;;;5030480;28;20430;-75
2022/08/01 13:43:00;;;;;;;2.37;1.47;;;32.80;1.00;;;;;;5018397;28;20502;-76